Time;durP1;ratioP1;P1;durP2;ratioP2;P2;SDS_P1;SDS_P2;PMS_P1;PMS_P2;Temp;Humidity;BMP_temperature;BMP_pressure;BME280_temperature;BME280_humidity;BME280_pressure;Samples;Min_cycle;Max_cycle;Signal;HPM_P1;HPM_P2
2021/05/11 00:02:20;;;;;;;17.83;16.13;;;;;;;19.26;66.26;99698.66;5061374;28;20512;-69
2021/05/11 00:04:47;;;;;;;16.93;15.33;;;;;;;19.29;66.35;99698.22;5062027;28;20488;-68
2021/05/11 00:07:13;;;;;;;17.33;15.53;;;;;;;19.37;66.16;99700.72;5063134;28;20488;-69
2021/05/11 00:09:39;;;;;;;17.23;15.47;;;;;;;19.51;66.10;99708.81;5079496;28;20839;-69
2021/05/11 00:12:06;;;;;;;18.70;17.00;;;;;;;19.56;65.86;99703.56;5080176;28;20483;-69
2021/05/11 00:14:32;;;;;;;17.70;15.93;;;;;;;19.54;65.63;99698.38;5081832;28;20479;-69
2021/05/11 00:16:58;;;;;;;18.00;16.30;;;;;;;19.38;66.27;99709.69;5067210;28;20519;-69
2021/05/11 00:19:26;;;;;;;16.60;15.13;;;;;;;19.48;66.13;99712.78;5064374;28;20457;-69
2021/05/11 00:21:53;;;;;;;19.07;17.27;;;;;;;19.25;66.70;99712.41;5067831;28;20487;-68
2021/05/11 00:24:20;;;;;;;19.03;17.23;;;;;;;19.24;66.94;99699.91;5081054;28;21323;-69
2021/05/11 00:26:46;;;;;;;19.80;17.80;;;;;;;19.42;66.02;99680.28;5080652;28;20560;-68
2021/05/11 00:29:12;;;;;;;20.00;18.17;;;;;;;19.49;66.01;99681.91;5081524;28;20548;-68
2021/05/11 00:31:39;;;;;;;21.93;19.67;;;;;;;19.49;66.18;99681.91;5063529;28;20575;-68
2021/05/11 00:34:05;;;;;;;21.27;19.37;;;;;;;19.45;66.28;99672.53;5061293;28;20452;-68
2021/05/11 00:36:31;;;;;;;22.43;20.27;;;;;;;19.40;66.15;99668.81;5060805;28;20885;-69
2021/05/11 00:38:58;;;;;;;23.80;21.33;;;;;;;19.14;66.76;99676.78;5076487;28;20452;-69
2021/05/11 00:41:24;;;;;;;23.57;20.87;;;;;;;18.58;68.48;99688.00;5078238;28;20558;-69
2021/05/11 00:43:50;;;;;;;23.80;21.50;;;;;;;18.91;68.01;99700.78;5076406;28;20500;-68
2021/05/11 00:46:18;;;;;;;22.13;19.93;;;;;;;19.25;67.03;99679.88;5060480;28;20476;-69
2021/05/11 00:48:44;;;;;;;24.83;22.40;;;;;;;19.36;66.14;99684.66;5063631;28;20446;-68
2021/05/11 00:51:10;;;;;;;22.47;20.37;;;;;;;19.35;66.43;99683.00;5080256;28;20546;-69
2021/05/11 00:53:38;;;;;;;26.63;24.03;;;;;;;19.35;66.39;99667.56;5068207;28;20469;-68
2021/05/11 00:56:05;;;;;;;25.90;22.60;;;;;;;19.45;66.11;99664.41;5059881;28;20567;-68
2021/05/11 00:58:32;;;;;;;25.83;23.07;;;;;;;19.50;66.05;99677.34;5060993;28;20938;-69
2021/05/11 01:00:58;;;;;;;24.57;21.27;;;;;;;19.06;67.31;99692.41;5060102;28;20465;-68
2021/05/11 01:03:24;;;;;;;24.57;22.07;;;;;;;19.39;66.63;99695.09;5060864;28;20457;-68
2021/05/11 01:05:51;;;;;;;24.07;21.47;;;;;;;19.48;66.20;99698.41;5060099;28;20568;-68
2021/05/11 01:08:17;;;;;;;26.90;24.00;;;;;;;19.49;66.07;99690.03;5068835;28;20475;-69
2021/05/11 01:10:43;;;;;;;28.53;25.53;;;;;;;19.56;65.78;99690.88;5079071;28;20480;-68
2021/05/11 01:13:10;;;;;;;27.20;24.63;;;;;;;19.64;65.62;99681.66;5067915;28;20449;-68
2021/05/11 01:15:39;;;;;;;27.33;24.33;;;;;;;19.80;64.92;99679.56;5060055;28;20473;-68
2021/05/11 01:18:08;;;;;;;25.73;23.07;;;;;;;19.73;64.83;99679.53;5071472;28;20980;-69
2021/05/11 01:20:37;;;;;;;23.50;20.37;;;;;;;19.68;65.00;99688.31;5079946;28;20511;-68
2021/05/11 01:26:00;;;;;;;21.80;19.60;;;;;;;19.42;65.55;99707.38;5058495;28;20476;-69
2021/05/11 01:28:31;;;;;;;21.27;19.27;;;;;;;19.46;65.55;99690.47;5066370;28;20474;-69
2021/05/11 01:47:45;;;;;;;19.23;17.37;;;;;;;19.29;65.59;99689.28;5059412;28;20550;-69
2021/05/11 01:50:17;;;;;;;20.40;18.33;;;;;;;19.41;65.14;99665.88;5068695;28;20909;-69
2021/05/11 01:53:00;;;;;;;18.43;16.70;;;;;;;19.32;65.31;99653.59;5079634;28;20448;-69
2021/05/11 02:22:52;;;;;;;22.87;19.03;;;;;;;18.80;66.22;99708.44;5013592;28;20470;-69
2021/05/11 02:25:18;;;;;;;19.80;17.83;;;;;;;18.61;66.32;99710.09;5020771;28;20450;-68
2021/05/11 02:27:45;;;;;;;18.57;16.63;;;;;;;18.43;66.05;99704.44;5018121;28;20450;-68
2021/05/11 02:30:12;;;;;;;21.40;16.80;;;;;;;18.41;66.28;99707.34;5000295;28;20487;-69
2021/05/11 02:32:39;;;;;;;17.90;15.53;;;;;;;18.12;66.76;99705.81;5004195;28;20459;-69
2021/05/11 02:35:06;;;;;;;19.37;15.23;;;;;;;18.19;66.95;99703.13;5020733;28;20538;-69
2021/05/11 02:37:33;;;;;;;19.30;16.43;;;;;;;18.20;66.43;99694.81;5014871;28;21032;-69
2021/05/11 02:39:59;;;;;;;16.63;14.87;;;;;;;18.44;65.64;99688.00;5000639;28;20523;-69
2021/05/11 02:42:25;;;;;;;14.77;13.27;;;;;;;18.42;65.39;99692.78;5019917;28;21090;-69
2021/05/11 02:44:53;;;;;;;16.17;12.97;;;;;;;18.47;65.44;99685.91;5020903;28;20478;-69
2021/05/11 02:47:19;;;;;;;15.27;13.67;;;;;;;18.46;65.64;99679.66;5009577;28;20554;-69
2021/05/11 02:49:48;;;;;;;16.40;13.33;;;;;;;18.55;65.38;99659.47;5001001;28;20570;-69
2021/05/11 02:52:14;;;;;;;14.37;12.97;;;;;;;18.52;65.31;99656.34;5013971;28;20493;-69
2021/05/11 02:54:41;;;;;;;14.60;13.20;;;;;;;18.67;64.78;99648.03;5020905;28;20454;-69
2021/05/11 02:57:07;;;;;;;13.97;12.57;;;;;;;18.76;64.77;99647.59;5019966;28;20478;-69
2021/05/11 02:59:34;;;;;;;19.40;13.87;;;;;;;18.51;65.71;99657.41;5078381;28;20500;-69
2021/05/11 03:02:01;;;;;;;15.63;13.37;;;;;;;18.43;66.25;99670.06;5066087;28;20523;-69
2021/05/11 03:04:27;;;;;;;15.37;13.50;;;;;;;18.51;65.28;99650.09;5062281;28;20950;-69
2021/05/11 03:06:57;;;;;;;14.33;12.67;;;;;;;18.63;65.28;99663.88;5047259;28;20482;-69
2021/05/11 03:09:23;;;;;;;14.50;12.83;;;;;;;18.54;64.79;99668.66;5053826;28;20452;-68
2021/05/11 03:11:50;;;;;;;15.93;13.40;;;;;;;18.10;66.61;99677.31;5062802;28;20551;-69
2021/05/11 03:14:16;;;;;;;17.57;13.53;;;;;;;18.19;66.60;99679.63;5062276;28;20457;-69
2021/05/11 03:16:42;;;;;;;15.10;12.37;;;;;;;18.46;65.67;99678.84;5062320;28;20981;-69
2021/05/11 03:19:09;;;;;;;15.50;13.90;;;;;;;18.34;66.09;99676.72;5062802;28;20429;-70
2021/05/11 03:21:36;;;;;;;15.10;13.30;;;;;;;18.38;65.77;99669.03;5076463;28;20486;-69
2021/05/11 03:24:02;;;;;;;15.47;13.97;;;;;;;18.46;65.69;99673.44;5064142;28;20499;-70
2021/05/11 03:26:28;;;;;;;14.67;13.17;;;;;;;18.51;65.52;99666.34;5061873;28;20639;-69
2021/05/11 03:28:54;;;;;;;14.77;13.27;;;;;;;18.53;64.99;99664.25;5062782;28;20490;-70
2021/05/11 03:31:21;;;;;;;14.60;12.70;;;;;;;18.52;65.28;99659.06;5061799;28;20587;-70
2021/05/11 03:33:47;;;;;;;15.67;14.07;;;;;;;18.54;65.61;99660.53;5062097;28;20450;-69
2021/05/11 03:36:14;;;;;;;13.63;12.20;;;;;;;18.72;65.49;99662.59;5061360;28;20539;-70
2021/05/11 03:38:40;;;;;;;14.37;12.97;;;;;;;18.63;65.37;99659.28;5062230;28;20540;-69
2021/05/11 03:41:06;;;;;;;15.83;13.53;;;;;;;18.65;65.31;99658.25;5061013;28;20511;-70
2021/05/11 03:43:36;;;;;;;14.20;12.70;;;;;;;18.60;65.62;99654.25;5061925;28;20532;-69
2021/05/11 03:46:07;;;;;;;12.90;11.60;;;;;;;18.54;65.29;99656.97;5061545;28;20483;-69
2021/05/11 03:48:33;;;;;;;13.93;11.37;;;;;;;18.38;65.25;99648.22;5061715;28;20555;-70
2021/05/11 03:51:05;;;;;;;12.57;11.33;;;;;;;18.55;64.82;99655.94;5061565;28;20881;-69
2021/05/11 03:53:32;;;;;;;13.67;11.30;;;;;;;18.60;64.66;99653.44;5062097;28;20484;-70
2021/05/11 03:55:58;;;;;;;12.00;10.77;;;;;;;18.73;63.91;99645.34;5062546;28;20503;-70
2021/05/11 03:58:24;;;;;;;12.50;11.20;;;;;;;18.64;64.58;99638.44;5063465;28;20433;-70
2021/05/11 04:00:50;;;;;;;13.20;11.07;;;;;;;18.79;64.25;99643.66;5062585;28;20507;-70
2021/05/11 04:03:16;;;;;;;16.13;12.20;;;;;;;18.92;63.93;99637.41;5063200;28;20518;-70
2021/05/11 04:05:43;;;;;;;15.17;13.27;;;;;;;18.88;64.40;99638.88;5062095;28;20473;-69
2021/05/11 04:08:09;;;;;;;15.93;14.40;;;;;;;18.81;64.79;99650.50;5060395;28;20456;-69
2021/05/11 04:10:40;;;;;;;14.93;13.50;;;;;;;18.97;63.88;99656.56;5061634;28;20508;-70
2021/05/11 04:13:22;;;;;;;18.90;14.57;;;;;;;18.88;64.07;99658.66;5063079;28;20822;-70
2021/05/11 04:18:33;;;;;;;16.67;15.07;;;;;;;18.64;64.53;99660.09;5063257;28;20448;-70
2021/05/11 04:20:59;;;;;;;16.77;15.27;;;;;;;18.52;65.29;99664.47;5061811;28;21147;-71
2021/05/11 04:23:25;;;;;;;18.07;16.23;;;;;;;18.54;65.18;99656.97;5061982;28;20457;-70
2021/05/11 04:25:52;;;;;;;17.23;15.37;;;;;;;18.70;64.99;99658.44;5062467;28;20962;-70
2021/05/11 04:28:18;;;;;;;16.97;15.27;;;;;;;18.83;64.05;99663.06;5056748;28;20718;-69
2021/05/11 04:30:44;;;;;;;15.87;14.30;;;;;;;18.83;63.95;99655.75;5052197;28;20526;-70
2021/05/11 04:33:11;;;;;;;16.37;14.77;;;;;;;18.90;63.90;99658.47;5061280;28;20486;-70
2021/05/11 04:35:37;;;;;;;16.50;14.77;;;;;;;19.08;63.36;99649.69;5056131;28;21083;-70
2021/05/11 04:38:03;;;;;;;15.40;13.83;;;;;;;19.00;63.70;99651.56;5042564;28;20439;-70
2021/05/11 04:40:30;;;;;;;15.80;14.30;;;;;;;18.96;63.96;99644.09;5040846;28;21031;-70
2021/05/11 04:42:57;;;;;;;16.33;14.73;;;;;;;18.94;63.64;99649.72;5042249;28;20510;-69
2021/05/11 04:45:26;;;;;;;14.93;13.50;;;;;;;18.91;63.66;99650.13;5060716;28;20453;-69
2021/05/11 04:47:54;;;;;;;19.10;15.13;;;;;;;18.97;63.70;99648.44;5061012;28;20907;-70
2021/05/11 04:50:21;;;;;;;16.23;14.53;;;;;;;18.92;63.78;99640.13;5059021;28;20524;-69
2021/05/11 04:52:48;;;;;;;17.30;14.60;;;;;;;18.76;64.34;99630.53;5060789;28;20441;-69
2021/05/11 04:55:17;;;;;;;16.63;15.03;;;;;;;17.95;67.06;99626.06;5059871;28;20452;-69
2021/05/11 04:57:44;;;;;;;17.17;15.40;;;;;;;18.25;66.66;99631.97;5046543;28;20473;-72
2021/05/11 05:00:13;;;;;;;17.23;15.43;;;;;;;18.48;66.09;99634.28;5059061;28;20473;-69
2021/05/11 05:02:41;;;;;;;19.07;16.60;;;;;;;18.55;65.59;99642.41;5061401;28;20471;-70
2021/05/11 05:05:08;;;;;;;18.17;16.17;;;;;;;18.66;65.08;99652.59;5059886;28;20456;-69
2021/05/11 05:07:35;;;;;;;17.60;15.70;;;;;;;18.71;64.99;99652.81;5055181;28;20501;-69
2021/05/11 05:10:02;;;;;;;19.70;16.10;;;;;;;18.57;65.56;99653.84;5058981;28;20512;-69
2021/05/11 05:12:28;;;;;;;16.73;14.80;;;;;;;18.44;65.27;99660.09;5048635;28;20524;-69
2021/05/11 05:14:54;;;;;;;18.97;16.37;;;;;;;18.59;65.13;99654.47;5040945;28;21038;-69
2021/05/11 05:17:21;;;;;;;16.90;15.30;;;;;;;18.51;65.26;99660.09;5048122;28;20527;-69
2021/05/11 05:19:47;;;;;;;16.30;14.67;;;;;;;18.18;66.07;99667.13;5059765;28;20479;-68
2021/05/11 05:22:13;;;;;;;15.60;14.10;;;;;;;18.51;65.43;99670.94;5053856;28;20600;-69
2021/05/11 05:24:42;;;;;;;15.50;13.97;;;;;;;18.40;65.53;99675.91;5040355;28;21075;-69
2021/05/11 05:27:15;;;;;;;15.40;14.00;;;;;;;18.25;66.11;99662.56;5044212;28;20563;-69
2021/05/11 05:29:41;;;;;;;14.77;13.37;;;;;;;18.35;65.93;99667.59;5056890;28;20453;-69
2021/05/11 05:32:07;;;;;;;15.67;14.07;;;;;;;18.17;66.06;99664.63;5056227;28;20485;-69
2021/05/11 05:34:34;;;;;;;16.03;13.50;;;;;;;18.33;65.98;99666.09;5057788;28;21022;-69
2021/05/11 05:37:01;;;;;;;15.63;14.00;;;;;;;18.06;67.07;99652.53;5042949;28;20557;-70
2021/05/11 05:39:31;;;;;;;15.00;13.50;;;;;;;17.79;67.71;99644.28;5047981;28;20510;-70
2021/05/11 05:41:57;;;;;;;15.40;12.20;;;;;;;17.46;68.72;99636.91;5046983;28;20651;-69
2021/05/11 05:44:24;;;;;;;9.20;8.10;;;;;;;16.70;69.89;99634.06;5059755;28;20865;-69
2021/05/11 05:46:50;;;;;;;4.37;3.97;;;;;;;16.17;70.75;99637.97;5055169;28;20519;-70
2021/05/11 05:49:16;;;;;;;4.90;4.50;;;;;;;16.23;70.34;99638.22;5057255;28;20426;-70
2021/05/11 05:51:46;;;;;;;3.50;2.90;;;;;;;15.74;70.79;99631.66;5049427;28;20550;-71
2021/05/11 05:54:13;;;;;;;5.70;2.43;;;;;;;15.72;70.76;99629.16;5043448;28;20960;-70
2021/05/11 05:56:39;;;;;;;2.63;2.20;;;;;;;15.80;70.89;99626.38;5038294;28;20477;-71
2021/05/11 05:59:05;;;;;;;2.90;2.50;;;;;;;16.09;70.15;99615.69;5048085;28;20445;-66
2021/05/11 06:01:31;;;;;;;3.73;3.17;;;;;;;16.17;69.55;99611.00;5046173;28;20489;-67
2021/05/11 06:04:05;;;;;;;2.73;2.53;;;;;;;16.49;68.85;99633.09;5058872;28;20453;-67
2021/05/11 06:06:31;;;;;;;2.90;1.90;;;;;;;16.19;68.52;99629.69;5057171;28;20476;-69
2021/05/11 06:09:00;;;;;;;2.37;1.90;;;;;;;16.28;68.54;99625.84;5044516;28;20482;-69
2021/05/11 06:11:30;;;;;;;2.80;2.03;;;;;;;16.64;67.33;99615.97;5038271;28;20484;-68
2021/05/11 06:14:07;;;;;;;4.23;2.33;;;;;;;16.38;67.41;99604.75;5039827;28;20526;-68
2021/05/11 06:19:17;;;;;;;3.30;2.20;;;;;;;16.06;68.18;99626.84;5056698;28;20468;-74
2021/05/11 06:21:43;;;;;;;1.90;1.80;;;;;;;16.45;67.13;99631.81;5073507;28;20965;-69
2021/05/11 06:24:11;;;;;;;1.60;1.50;;;;;;;17.03;65.40;99638.91;5062447;28;20484;-72
2021/05/11 06:26:37;;;;;;;2.00;1.67;;;;;;;16.61;66.47;99637.97;5058099;28;20548;-66
2021/05/11 06:29:06;;;;;;;3.97;2.03;;;;;;;16.29;66.58;99638.31;5069968;28;20975;-67
2021/05/11 06:31:32;;;;;;;1.73;1.63;;;;;;;16.27;66.43;99634.16;5067847;28;20506;-72
2021/05/11 06:33:59;;;;;;;5.00;1.50;;;;;;;16.70;65.82;99652.97;5075663;28;20448;-70
2021/05/11 06:36:26;;;;;;;4.90;1.80;;;;;;;16.40;65.83;99652.31;5077204;28;20586;-69
2021/05/11 06:38:52;;;;;;;3.67;1.57;;;;;;;16.68;65.75;99655.91;5066157;28;20440;-72
2021/05/11 06:41:20;;;;;;;2.40;2.00;;;;;;;16.97;64.48;99656.75;5068041;28;20471;-66
2021/05/11 06:43:46;;;;;;;2.03;1.47;;;;;;;16.98;64.61;99660.28;5069756;28;20455;-67
2021/05/11 06:46:41;;;;;;;2.37;1.70;;;;;;;17.43;63.16;99663.47;5054632;28;20492;-70
2021/05/11 06:54:33;;;;;;;1.83;1.50;;;;;;;16.74;65.16;99625.41;5077323;28;20529;-74
2021/05/11 06:57:00;;;;;;;1.90;1.70;;;;;;;16.76;64.40;99627.91;5057690;28;20483;-70
2021/05/11 06:59:27;;;;;;;2.10;1.30;;;;;;;16.75;64.49;99634.31;5067361;28;20532;-64
2021/05/11 07:01:53;;;;;;;4.57;1.93;;;;;;;17.01;63.48;99635.59;5068629;28;20480;-72
2021/05/11 07:04:19;;;;;;;2.70;1.97;;;;;;;16.93;63.64;99631.19;5071803;28;20448;-72
2021/05/11 07:06:45;;;;;;;2.03;1.70;;;;;;;17.02;63.20;99632.69;5081674;28;20481;-69
2021/05/11 07:09:15;;;;;;;3.40;1.60;;;;;;;16.94;64.48;99628.28;5081640;28;20440;-73
2021/05/11 07:14:26;;;;;;;4.70;1.80;;;;;;;17.04;63.81;99619.00;5061792;28;20444;-67
2021/05/11 07:16:52;;;;;;;2.80;1.90;;;;;;;17.35;63.21;99617.72;5071891;28;20475;-68
2021/05/11 07:19:18;;;;;;;2.23;2.03;;;;;;;16.92;64.28;99634.91;5080065;28;20498;-69
2021/05/11 07:21:45;;;;;;;3.57;1.70;;;;;;;16.63;64.71;99625.94;5076389;28;20477;-71
2021/05/11 07:24:11;;;;;;;3.20;2.30;;;;;;;16.68;64.65;99619.94;5071273;28;20460;-69
2021/05/11 07:26:47;;;;;;;2.53;1.97;;;;;;;17.28;62.91;99613.09;5080641;28;21008;-66
2021/05/11 07:29:27;;;;;;;2.50;1.90;;;;;;;17.03;63.53;99614.59;5076431;28;20458;-70
2021/05/11 07:31:54;;;;;;;4.30;1.57;;;;;;;17.43;62.54;99622.94;5082162;28;20478;-70
2021/05/11 07:34:21;;;;;;;2.33;1.60;;;;;;;17.85;61.84;99634.56;5078794;28;20452;-73
2021/05/11 07:36:48;;;;;;;3.73;1.83;;;;;;;17.34;62.52;99635.78;5063385;28;20496;-68
2021/05/11 07:39:14;;;;;;;3.30;1.40;;;;;;;17.32;62.63;99635.16;5063425;28;20448;-68
2021/05/11 07:41:40;;;;;;;1.97;1.30;;;;;;;17.54;61.67;99637.75;5066476;28;20484;-65
2021/05/11 07:44:07;;;;;;;3.03;1.60;;;;;;;17.60;61.88;99639.66;5061322;28;20475;-70
2021/05/11 07:46:45;;;;;;;2.83;1.50;;;;;;;17.49;61.67;99646.47;5062162;28;20472;-74
2021/05/11 08:06:09;;;;;;;1.77;1.10;;;;;;;17.55;61.79;99645.69;5081544;28;20506;-69
2021/05/11 08:16:59;;;;;;;3.77;1.80;;;;;;;17.35;63.99;99586.13;4998712;28;20520;-67
2021/05/11 08:19:46;;;;;;;7.70;2.00;;;;;;;17.95;62.17;99580.94;4998763;28;20585;-67
2021/05/11 08:22:33;;;;;;;1.90;1.70;;;;;;;19.17;58.27;99575.28;4979403;28;20491;-66
2021/05/11 08:27:46;;;;;;;3.83;1.50;;;;;;;18.91;58.46;99593.25;4972768;28;20524;-69
2021/05/11 08:30:14;;;;;;;1.40;1.30;;;;;;;18.16;60.42;99587.22;4959704;28;20551;-68
2021/05/11 08:32:40;;;;;;;1.50;1.40;;;;;;;17.98;60.70;99574.28;4976504;28;20527;-68
2021/05/11 08:35:07;;;;;;;2.20;1.30;;;;;;;18.21;60.24;99576.59;4979229;28;20472;-70
2021/05/11 08:37:35;;;;;;;1.70;1.40;;;;;;;17.77;61.29;99586.06;4979741;28;20468;-71
2021/05/11 08:40:02;;;;;;;1.53;1.37;;;;;;;17.30;62.87;99569.69;4971433;28;20484;-69
2021/05/11 08:42:31;;;;;;;2.13;1.60;;;;;;;17.45;62.83;99567.66;4977374;28;20508;-70
2021/05/11 08:45:02;;;;;;;3.53;2.10;;;;;;;16.77;64.40;99562.09;4963201;28;20472;-71
2021/05/11 08:47:29;;;;;;;2.20;1.63;;;;;;;17.10;64.11;99564.19;4959275;28;20469;-74
2021/05/11 08:49:56;;;;;;;4.17;1.90;;;;;;;16.95;64.48;99569.72;4959691;28;20461;-73
2021/05/11 08:52:28;;;;;;;2.73;1.73;;;;;;;16.91;64.14;99553.06;4994211;28;20501;-73
2021/05/11 09:09:08;;;;;;;3.90;2.10;;;;;;;17.83;62.00;99566.31;5034615;28;20449;-69
2021/05/11 09:15:18;;;;;;;2.50;2.30;;;;;;;17.63;62.08;99593.28;5056455;28;20436;-69
2021/05/11 09:26:01;;;;;;;2.87;2.67;;;;;;;17.34;63.64;99584.44;5072103;28;20522;-73
2021/05/11 09:28:37;;;;;;;3.60;2.63;;;;;;;17.74;62.52;99594.56;5049141;28;20786;-67
2021/05/11 09:31:14;;;;;;;2.70;2.50;;;;;;;18.00;61.57;99594.69;5058700;28;20480;-72
2021/05/11 09:33:48;;;;;;;2.43;2.23;;;;;;;18.03;61.33;99590.72;5043606;28;20506;-71
2021/05/11 10:48:19;;;;;;;7.80;7.10;;;;;;;18.13;62.34;99572.22;5039463;28;20441;-66
2021/05/11 10:50:50;;;;;;;8.00;7.30;;;;;;;17.77;63.90;99575.25;5023079;28;20520;-69
2021/05/11 10:53:41;;;;;;;6.90;6.30;;;;;;;17.51;64.07;99587.63;5036004;28;20847;-70
2021/05/11 10:57:03;;;;;;;8.00;7.20;;;;;;;17.28;64.65;99586.09;5081489;28;20495;-69
2021/05/11 11:02:37;;;;;;;8.90;8.03;;;;;;;17.45;65.45;99586.56;5037540;28;20533;-69
2021/05/11 11:05:04;;;;;;;10.23;9.30;;;;;;;17.38;65.07;99590.31;5045313;28;20456;-66
2021/05/11 11:07:32;;;;;;;10.60;9.70;;;;;;;17.45;64.65;99580.34;5076087;28;20818;-67
2021/05/11 11:10:00;;;;;;;10.43;9.43;;;;;;;17.62;64.72;99573.56;5061967;28;20487;-65
2021/05/11 11:12:34;;;;;;;11.67;10.57;;;;;;;17.86;63.58;99566.78;5081835;28;20476;-67
2021/05/11 11:15:03;;;;;;;10.50;9.60;;;;;;;18.23;63.16;99558.28;5076111;28;20542;-68
2021/05/11 11:17:30;;;;;;;10.77;9.83;;;;;;;18.25;62.65;99562.44;5082510;28;20451;-66
2021/05/11 11:20:00;;;;;;;10.30;9.40;;;;;;;18.51;61.87;99560.78;5073471;28;20878;-70
2021/05/11 11:25:15;;;;;;;11.33;10.33;;;;;;;18.08;63.79;99557.66;5065530;28;20468;-70
2021/05/11 11:27:41;;;;;;;10.70;9.73;;;;;;;18.23;62.53;99551.00;5066352;28;20476;-71
2021/05/11 11:30:08;;;;;;;11.07;9.97;;;;;;;18.00;63.40;99529.78;5079467;28;20804;-69
2021/05/11 11:32:35;;;;;;;11.03;10.10;;;;;;;18.34;62.74;99529.78;5081129;28;20460;-69
2021/05/11 11:35:02;;;;;;;14.47;12.77;;;;;;;17.74;64.41;99537.78;5074392;28;20451;-72
2021/05/11 11:37:29;;;;;;;12.53;11.33;;;;;;;18.43;62.58;99532.03;5075118;28;20476;-72
2021/05/11 11:39:56;;;;;;;12.53;11.33;;;;;;;19.01;60.91;99514.25;5067353;28;20480;-71
2021/05/11 11:42:24;;;;;;;13.63;12.23;;;;;;;19.07;59.76;99513.38;5076423;28;20483;-71
2021/05/11 11:44:55;;;;;;;13.10;12.00;;;;;;;18.81;60.88;99515.09;5073975;28;20472;-68
2021/05/11 11:47:23;;;;;;;12.87;11.60;;;;;;;18.91;60.42;99519.28;5077352;28;20471;-68
2021/05/11 11:49:51;;;;;;;12.70;11.60;;;;;;;19.43;59.35;99516.59;5079129;28;20474;-69
2021/05/11 11:52:23;;;;;;;14.40;13.10;;;;;;;19.80;58.36;99541.22;5075502;28;20628;-65
2021/05/11 11:55:04;;;;;;;13.57;12.13;;;;;;;19.81;58.82;99551.84;5078396;28;20678;-65
2021/05/11 11:57:53;;;;;;;12.00;10.90;;;;;;;20.47;57.37;99561.38;5078940;28;20496;-66
2021/05/11 12:00:22;;;;;;;11.50;10.30;;;;;;;20.75;56.27;99565.53;5075502;28;20467;-67
2021/05/11 12:02:52;;;;;;;11.13;10.23;;;;;;;19.79;58.31;99572.09;5076713;28;20440;-66
2021/05/11 12:05:19;;;;;;;11.10;10.00;;;;;;;19.74;58.98;99584.44;5058398;28;20459;-72
2021/05/11 12:07:58;;;;;;;12.30;11.20;;;;;;;20.30;57.91;99603.69;5073157;28;20507;-70
2021/05/11 12:10:24;;;;;;;13.67;11.83;;;;;;;19.63;58.85;99604.06;5076563;28;20476;-69
2021/05/11 12:12:52;;;;;;;11.60;10.60;;;;;;;19.55;59.81;99598.91;5079272;28;20439;-70
2021/05/11 12:15:20;;;;;;;12.77;11.63;;;;;;;19.81;59.32;99597.97;5076934;28;20456;-70
2021/05/11 12:17:48;;;;;;;13.17;11.97;;;;;;;19.80;59.47;99590.88;5079043;28;20466;-69
2021/05/11 12:20:24;;;;;;;12.33;11.23;;;;;;;19.76;58.85;99605.91;5072038;28;20552;-70
2021/05/11 12:23:05;;;;;;;11.17;10.20;;;;;;;20.12;57.93;99602.56;5067429;28;20444;-68
2021/05/11 12:25:32;;;;;;;12.50;11.30;;;;;;;19.30;59.87;99610.44;5062136;28;20467;-68
2021/05/11 12:27:59;;;;;;;11.97;10.93;;;;;;;20.00;58.17;99601.63;5078188;28;20467;-67
2021/05/11 12:30:37;;;;;;;10.53;9.63;;;;;;;20.40;56.59;99587.75;5076511;28;20468;-66
2021/05/11 12:33:05;;;;;;;11.43;10.33;;;;;;;20.40;56.01;99567.94;5077156;28;20896;-66
2021/05/11 12:35:31;;;;;;;10.87;9.93;;;;;;;20.32;56.61;99567.13;5064762;28;20460;-68
2021/05/11 12:38:01;;;;;;;11.43;10.33;;;;;;;20.17;57.18;99572.03;5070177;28;20470;-68
2021/05/11 12:40:44;;;;;;;11.10;10.00;;;;;;;19.87;57.73;99566.41;5068575;28;20621;-68
2021/05/11 12:43:11;;;;;;;12.30;11.00;;;;;;;19.16;60.55;99574.41;5071242;28;20815;-69
2021/05/11 12:45:51;;;;;;;13.03;11.73;;;;;;;18.68;62.03;99592.81;5079358;28;20494;-68
2021/05/11 12:48:17;;;;;;;11.20;10.20;;;;;;;18.22;64.14;99584.50;5081081;28;20464;-69
2021/05/11 12:50:44;;;;;;;13.63;12.20;;;;;;;18.15;64.49;99589.06;5080018;28;20479;-66
2021/05/11 12:53:34;;;;;;;14.40;12.93;;;;;;;18.01;64.91;99590.94;5073226;28;20975;-69
2021/05/11 12:56:13;;;;;;;12.97;11.77;;;;;;;17.54;66.27;99579.13;5060575;28;20484;-69
2021/05/11 12:58:54;;;;;;;14.23;12.87;;;;;;;17.80;65.94;99578.38;5078413;28;20810;-68
2021/05/11 13:01:31;;;;;;;13.10;11.90;;;;;;;17.29;68.22;99552.63;5080337;28;20478;-66
2021/05/11 13:15:26;;;;;;;17.57;15.73;;;;;;;17.95;66.89;99516.03;5021714;28;20553;-69
2021/05/11 13:23:25;;;;;;;13.33;12.13;;;;;;;18.39;65.19;99482.09;5016077;28;20492;-67
2021/05/11 13:25:53;;;;;;;13.17;11.90;;;;;;;18.63;64.25;99487.88;5039037;28;20470;-69
2021/05/11 13:28:23;;;;;;;14.37;13.07;;;;;;;18.48;63.69;99506.22;5053270;28;20441;-67
2021/05/11 13:30:55;;;;;;;12.80;11.50;;;;;;;19.01;62.93;99498.00;5052840;28;20484;-69
2021/05/11 13:33:27;;;;;;;13.57;12.17;;;;;;;18.87;63.60;99501.78;5061258;28;20467;-65
2021/05/11 13:35:53;;;;;;;13.03;11.73;;;;;;;18.71;63.77;99501.16;5055331;28;21008;-67
2021/05/11 13:38:21;;;;;;;12.13;11.10;;;;;;;18.97;63.30;99513.00;5053550;28;20459;-71
2021/05/11 13:40:47;;;;;;;12.70;11.60;;;;;;;18.92;62.97;99505.53;5048135;28;20471;-70
2021/05/11 13:43:13;;;;;;;12.83;11.63;;;;;;;18.69;63.62;99500.56;5059624;28;20441;-73
2021/05/11 13:45:39;;;;;;;11.83;10.83;;;;;;;18.65;64.06;99501.22;5054575;28;20468;-64
2021/05/11 13:48:11;;;;;;;12.00;11.00;;;;;;;18.67;63.49;99499.94;5058925;28;20535;-70
2021/05/11 13:50:53;;;;;;;13.70;12.40;;;;;;;18.78;63.27;99510.13;5042192;28;20478;-68
2021/05/11 13:53:22;;;;;;;12.83;11.73;;;;;;;19.03;63.35;99517.59;5055330;28;20644;-67
2021/05/11 13:55:57;;;;;;;12.47;11.47;;;;;;;18.98;63.13;99523.63;5058791;28;20475;-69
2021/05/11 14:03:53;;;;;;;9.60;8.80;;;;;;;19.96;60.00;99537.97;5052488;28;20448;-66
2021/05/11 14:06:20;;;;;;;10.77;9.97;;;;;;;19.99;60.08;99540.25;5058202;28;20600;-68
2021/05/11 14:08:46;;;;;;;11.03;10.13;;;;;;;21.07;57.44;99535.50;5058958;28;20441;-69
2021/05/11 14:11:12;;;;;;;9.47;8.77;;;;;;;21.23;56.37;99536.78;5045205;28;21062;-68
2021/05/11 14:13:38;;;;;;;8.40;7.73;;;;;;;21.11;56.43;99539.44;5039412;28;20430;-67
2021/05/11 14:16:05;;;;;;;8.93;8.20;;;;;;;21.40;54.49;99534.25;5058081;28;21179;-68
2021/05/11 14:18:32;;;;;;;9.33;8.17;;;;;;;20.50;56.57;99533.78;5064603;28;20520;-68
2021/05/11 14:20:59;;;;;;;7.90;7.20;;;;;;;20.50;56.31;99519.34;5047242;28;20530;-69
2021/05/11 14:23:25;;;;;;;8.97;8.17;;;;;;;20.72;56.41;99514.38;5054782;28;20513;-70
2021/05/11 14:25:51;;;;;;;8.50;7.70;;;;;;;21.39;55.05;99514.41;5061160;28;20468;-70
2021/05/11 14:28:17;;;;;;;9.20;8.50;;;;;;;21.57;55.67;99520.91;5062344;28;20457;-70
2021/05/11 14:30:44;;;;;;;9.07;8.40;;;;;;;21.57;53.98;99542.66;5061463;28;20481;-72
2021/05/11 14:33:10;;;;;;;7.40;6.90;;;;;;;21.66;53.66;99533.09;5051797;28;20505;-72
2021/05/11 14:35:36;;;;;;;8.10;7.30;;;;;;;21.63;53.76;99520.81;5045762;28;20473;-71
2021/05/11 14:38:03;;;;;;;8.10;7.50;;;;;;;21.12;55.47;99522.06;5055655;28;20824;-72
2021/05/11 14:40:30;;;;;;;8.93;8.23;;;;;;;21.17;55.44;99524.09;5051801;28;20483;-68
2021/05/11 14:42:56;;;;;;;7.90;7.30;;;;;;;21.00;55.02;99513.00;5055349;28;20448;-68
2021/05/11 14:45:22;;;;;;;7.93;7.33;;;;;;;21.10;54.98;99515.22;5042116;28;20492;-70
2021/05/11 14:47:48;;;;;;;9.70;7.53;;;;;;;20.84;55.62;99517.16;5055806;28;20547;-71
2021/05/11 14:50:15;;;;;;;8.10;7.50;;;;;;;20.86;55.46;99513.16;5062326;28;20461;-71
2021/05/11 14:52:41;;;;;;;7.47;6.97;;;;;;;20.80;55.72;99516.78;5062249;28;20465;-70
2021/05/11 14:55:11;;;;;;;8.57;7.63;;;;;;;20.16;57.09;99518.84;5062959;28;20447;-74
2021/05/11 14:57:37;;;;;;;8.60;7.73;;;;;;;20.38;56.94;99519.28;5044418;28;20442;-73
2021/05/11 15:00:04;;;;;;;8.00;7.40;;;;;;;20.41;55.72;99531.56;5058699;28;21029;-71
2021/05/11 15:02:30;;;;;;;8.97;8.27;;;;;;;20.15;57.55;99529.91;5063482;28;20966;-68
2021/05/11 15:04:56;;;;;;;11.07;7.77;;;;;;;20.40;57.49;99533.47;5062340;28;20532;-70
2021/05/11 15:07:22;;;;;;;8.23;7.57;;;;;;;20.49;56.54;99534.81;5078264;28;20548;-67